sensor_id;sensor_type;location;lat;lon;timestamp;pressure;altitude;pressure_sealevel;temperature;humidity
69879;BME280;57161;43.136;24.706;2023-01-24T00:00:04;100700.09;;;1.92;89.84
69879;BME280;57161;43.136;24.706;2023-01-24T00:02:29;100704.31;;;2.06;89.74
69879;BME280;57161;43.136;24.706;2023-01-24T00:04:55;100689.72;;;1.96;89.45
69879;BME280;57161;43.136;24.706;2023-01-24T00:07:20;100698.63;;;2.00;89.89
69879;BME280;57161;43.136;24.706;2023-01-24T00:09:46;100699.09;;;1.99;89.38
69879;BME280;57161;43.136;24.706;2023-01-24T00:12:11;100690.09;;;1.86;89.82
69879;BME280;57161;43.136;24.706;2023-01-24T00:14:37;100732.53;;;2.10;90.01
69879;BME280;57161;43.136;24.706;2023-01-24T00:17:02;100691.81;;;1.92;89.92
69879;BME280;57161;43.136;24.706;2023-01-24T00:19:28;100679.97;;;1.83;89.85
69879;BME280;57161;43.136;24.706;2023-01-24T00:21:53;100689.50;;;1.91;90.06
69879;BME280;57161;43.136;24.706;2023-01-24T00:24:19;100734.53;;;2.31;89.60
69879;BME280;57161;43.136;24.706;2023-01-24T00:26:44;100729.03;;;2.31;89.39
69879;BME280;57161;43.136;24.706;2023-01-24T00:29:09;100727.59;;;2.05;89.78
69879;BME280;57161;43.136;24.706;2023-01-24T00:31:35;100727.16;;;2.06;90.01
69879;BME280;57161;43.136;24.706;2023-01-24T00:34:00;100727.56;;;1.96;90.86
69879;BME280;57161;43.136;24.706;2023-01-24T00:36:26;100710.34;;;1.92;90.83
69879;BME280;57161;43.136;24.706;2023-01-24T00:38:53;100723.44;;;2.00;90.19
69879;BME280;57161;43.136;24.706;2023-01-24T00:41:19;100713.88;;;1.92;90.70
69879;BME280;57161;43.136;24.706;2023-01-24T00:43:45;100721.69;;;1.94;90.37
69879;BME280;57161;43.136;24.706;2023-01-24T00:46:10;100726.34;;;1.97;90.97
69879;BME280;57161;43.136;24.706;2023-01-24T00:48:36;100714.00;;;1.89;90.38
69879;BME280;57161;43.136;24.706;2023-01-24T00:51:02;100718.94;;;1.94;90.80
69879;BME280;57161;43.136;24.706;2023-01-24T00:53:28;100714.72;;;1.80;90.93
69879;BME280;57161;43.136;24.706;2023-01-24T00:55:53;100727.78;;;1.89;91.56
69879;BME280;57161;43.136;24.706;2023-01-24T00:58:20;100730.31;;;1.96;91.54
69879;BME280;57161;43.136;24.706;2023-01-24T01:00:46;100720.41;;;1.86;91.91
69879;BME280;57161;43.136;24.706;2023-01-24T01:03:19;100718.06;;;1.97;91.56
69879;BME280;57161;43.136;24.706;2023-01-24T01:05:45;100695.22;;;1.74;91.89
69879;BME280;57161;43.136;24.706;2023-01-24T01:08:11;100704.56;;;1.77;92.03
69879;BME280;57161;43.136;24.706;2023-01-24T01:10:37;100640.69;;;1.35;92.17
69879;BME280;57161;43.136;24.706;2023-01-24T01:13:03;100696.47;;;1.61;92.51
69879;BME280;57161;43.136;24.706;2023-01-24T01:15:30;100714.94;;;1.73;93.32
69879;BME280;57161;43.136;24.706;2023-01-24T01:17:57;100665.03;;;1.36;92.78
69879;BME280;57161;43.136;24.706;2023-01-24T01:20:23;100711.22;;;1.67;93.24
69879;BME280;57161;43.136;24.706;2023-01-24T01:22:49;100693.09;;;1.44;93.55
69879;BME280;57161;43.136;24.706;2023-01-24T01:25:14;100699.78;;;1.56;93.86
69879;BME280;57161;43.136;24.706;2023-01-24T01:27:40;100722.13;;;1.70;93.52
69879;BME280;57161;43.136;24.706;2023-01-24T01:30:06;100676.78;;;1.49;93.51
69879;BME280;57161;43.136;24.706;2023-01-24T01:32:32;100717.88;;;1.57;94.03
69879;BME280;57161;43.136;24.706;2023-01-24T01:34:57;100712.47;;;1.53;93.69
69879;BME280;57161;43.136;24.706;2023-01-24T01:37:23;100705.25;;;1.46;94.24
69879;BME280;57161;43.136;24.706;2023-01-24T01:39:49;100690.50;;;1.28;93.82
69879;BME280;57161;43.136;24.706;2023-01-24T01:42:15;100715.69;;;1.52;94.58
69879;BME280;57161;43.136;24.706;2023-01-24T01:44:41;100685.84;;;1.37;94.08
69879;BME280;57161;43.136;24.706;2023-01-24T01:47:50;100714.81;;;1.42;94.59
69879;BME280;57161;43.136;24.706;2023-01-24T01:50:26;100719.00;;;1.46;94.29
69879;BME280;57161;43.136;24.706;2023-01-24T01:52:53;100720.09;;;1.49;94.24
69879;BME280;57161;43.136;24.706;2023-01-24T01:55:24;100710.16;;;1.52;94.02
69879;BME280;57161;43.136;24.706;2023-01-24T01:57:52;100702.13;;;1.44;93.33
69879;BME280;57161;43.136;24.706;2023-01-24T02:00:21;100726.25;;;1.53;92.99
69879;BME280;57161;43.136;24.706;2023-01-24T02:02:53;100707.59;;;1.23;93.69
69879;BME280;57161;43.136;24.706;2023-01-24T02:05:40;100703.03;;;1.29;93.45
69879;BME280;57161;43.136;24.706;2023-01-24T02:08:06;100708.22;;;1.27;93.70
69879;BME280;57161;43.136;24.706;2023-01-24T02:10:37;100730.25;;;1.39;93.44
69879;BME280;57161;43.136;24.706;2023-01-24T02:13:20;100722.13;;;1.23;93.28
69879;BME280;57161;43.136;24.706;2023-01-24T02:15:49;100722.47;;;1.12;94.18
69879;BME280;57161;43.136;24.706;2023-01-24T02:18:34;100687.56;;;0.97;94.69
69879;BME280;57161;43.136;24.706;2023-01-24T02:21:02;100732.38;;;1.23;94.64
69879;BME280;57161;43.136;24.706;2023-01-24T02:26:39;100729.16;;;1.24;93.85
69879;BME280;57161;43.136;24.706;2023-01-24T02:29:09;100742.94;;;1.37;93.64
69879;BME280;57161;43.136;24.706;2023-01-24T02:31:53;100743.84;;;1.21;93.73
69879;BME280;57161;43.136;24.706;2023-01-24T02:34:20;100703.44;;;0.93;93.99
69879;BME280;57161;43.136;24.706;2023-01-24T02:36:45;100726.66;;;1.04;94.18
69879;BME280;57161;43.136;24.706;2023-01-24T02:39:18;100734.91;;;1.04;94.84
69879;BME280;57161;43.136;24.706;2023-01-24T02:42:11;100671.53;;;0.57;95.32
69879;BME280;57161;43.136;24.706;2023-01-24T02:45:10;100738.31;;;1.08;95.17
69879;BME280;57161;43.136;24.706;2023-01-24T02:47:44;100703.66;;;0.85;95.01
69879;BME280;57161;43.136;24.706;2023-01-24T02:50:12;100737.34;;;1.02;94.54
69879;BME280;57161;43.136;24.706;2023-01-24T02:52:38;100744.59;;;1.09;94.98
69879;BME280;57161;43.136;24.706;2023-01-24T02:55:23;100743.19;;;1.04;94.07
69879;BME280;57161;43.136;24.706;2023-01-24T02:57:49;100739.97;;;1.06;94.39
69879;BME280;57161;43.136;24.706;2023-01-24T03:00:39;100734.34;;;1.09;94.83
69879;BME280;57161;43.136;24.706;2023-01-24T03:03:06;100714.88;;;0.91;94.39
69879;BME280;57161;43.136;24.706;2023-01-24T03:05:32;100741.72;;;1.12;93.79
69879;BME280;57161;43.136;24.706;2023-01-24T03:08:06;100708.81;;;0.96;94.33
69879;BME280;57161;43.136;24.706;2023-01-24T03:10:32;100727.09;;;1.15;93.71
69879;BME280;57161;43.136;24.706;2023-01-24T03:12:58;100742.94;;;1.11;93.42
69879;BME280;57161;43.136;24.706;2023-01-24T03:15:42;100734.81;;;0.95;94.01
69879;BME280;57161;43.136;24.706;2023-01-24T03:18:26;100710.72;;;0.86;93.71
69879;BME280;57161;43.136;24.706;2023-01-24T03:21:10;100726.34;;;0.89;94.85
69879;BME280;57161;43.136;24.706;2023-01-24T03:23:54;100729.41;;;0.92;94.79
69879;BME280;57161;43.136;24.706;2023-01-24T03:26:38;100734.47;;;0.93;94.68
69879;BME280;57161;43.136;24.706;2023-01-24T03:29:22;100733.16;;;1.10;94.67
69879;BME280;57161;43.136;24.706;2023-01-24T03:32:06;100710.16;;;0.79;94.60
69879;BME280;57161;43.136;24.706;2023-01-24T03:34:50;100681.22;;;0.49;94.81
69879;BME280;57161;43.136;24.706;2023-01-24T03:37:17;100692.53;;;0.51;94.37
69879;BME280;57161;43.136;24.706;2023-01-24T03:40:04;100681.41;;;0.42;94.92
69879;BME280;57161;43.136;24.706;2023-01-24T03:42:31;100690.56;;;0.51;95.63
69879;BME280;57161;43.136;24.706;2023-01-24T03:44:57;100723.25;;;0.75;95.17
69879;BME280;57161;43.136;24.706;2023-01-24T03:47:22;100693.31;;;0.51;95.59
69879;BME280;57161;43.136;24.706;2023-01-24T03:49:48;100697.38;;;0.59;95.65
69879;BME280;57161;43.136;24.706;2023-01-24T03:52:32;100700.56;;;0.58;95.50
69879;BME280;57161;43.136;24.706;2023-01-24T03:54:59;100733.69;;;0.80;95.68
69879;BME280;57161;43.136;24.706;2023-01-24T03:57:26;100722.16;;;0.72;95.28
69879;BME280;57161;43.136;24.706;2023-01-24T03:59:52;100715.66;;;0.66;95.61
69879;BME280;57161;43.136;24.706;2023-01-24T04:02:18;100709.28;;;0.69;95.66
69879;BME280;57161;43.136;24.706;2023-01-24T04:04:44;100714.53;;;0.64;95.47
69879;BME280;57161;43.136;24.706;2023-01-24T04:07:48;100726.88;;;0.72;95.65
69879;BME280;57161;43.136;24.706;2023-01-24T04:10:14;100733.47;;;0.74;95.21
69879;BME280;57161;43.136;24.706;2023-01-24T04:12:40;100731.06;;;0.76;95.17
69879;BME280;57161;43.136;24.706;2023-01-24T04:15:06;100685.81;;;0.39;94.73
69879;BME280;57161;43.136;24.706;2023-01-24T04:17:32;100724.13;;;0.72;95.92
69879;BME280;57161;43.136;24.706;2023-01-24T04:19:58;100662.50;;;0.44;95.04
69879;BME280;57161;43.136;24.706;2023-01-24T04:22:24;100695.72;;;0.75;94.36
69879;BME280;57161;43.136;24.706;2023-01-24T04:24:49;100727.09;;;0.90;94.12
69879;BME280;57161;43.136;24.706;2023-01-24T04:27:15;100740.84;;;0.77;95.21
69879;BME280;57161;43.136;24.706;2023-01-24T04:29:41;100735.34;;;0.65;95.54
69879;BME280;57161;43.136;24.706;2023-01-24T04:32:07;100740.97;;;0.74;95.00
69879;BME280;57161;43.136;24.706;2023-01-24T04:34:32;100690.66;;;0.35;95.44
69879;BME280;57161;43.136;24.706;2023-01-24T04:36:58;100723.16;;;0.66;95.64
69879;BME280;57161;43.136;24.706;2023-01-24T04:39:24;100729.84;;;0.77;94.75
69879;BME280;57161;43.136;24.706;2023-01-24T04:41:49;100658.81;;;0.09;94.22
69879;BME280;57161;43.136;24.706;2023-01-24T04:44:15;100707.69;;;0.43;95.05
69879;BME280;57161;43.136;24.706;2023-01-24T04:46:40;100730.03;;;0.45;95.31
69879;BME280;57161;43.136;24.706;2023-01-24T04:49:06;100717.59;;;0.40;96.05
69879;BME280;57161;43.136;24.706;2023-01-24T04:51:31;100731.72;;;0.55;95.19
69879;BME280;57161;43.136;24.706;2023-01-24T04:53:57;100733.56;;;0.45;95.80
69879;BME280;57161;43.136;24.706;2023-01-24T04:56:22;100740.06;;;0.51;96.43
69879;BME280;57161;43.136;24.706;2023-01-24T04:58:48;100741.94;;;0.54;95.98
69879;BME280;57161;43.136;24.706;2023-01-24T05:01:13;100746.22;;;0.55;95.64
69879;BME280;57161;43.136;24.706;2023-01-24T05:03:39;100680.59;;;0.16;95.17
69879;BME280;57161;43.136;24.706;2023-01-24T05:06:04;100751.59;;;0.46;95.21
69879;BME280;57161;43.136;24.706;2023-01-24T05:08:30;100722.88;;;0.35;95.36
69879;BME280;57161;43.136;24.706;2023-01-24T05:10:57;100743.78;;;0.45;95.14
69879;BME280;57161;43.136;24.706;2023-01-24T05:13:25;100763.03;;;0.45;96.02
69879;BME280;57161;43.136;24.706;2023-01-24T05:15:51;100729.44;;;0.24;95.50
69879;BME280;57161;43.136;24.706;2023-01-24T05:18:16;100756.97;;;0.37;95.38
69879;BME280;57161;43.136;24.706;2023-01-24T05:20:43;100736.91;;;0.24;96.11
69879;BME280;57161;43.136;24.706;2023-01-24T05:23:09;100767.88;;;0.41;95.94
69879;BME280;57161;43.136;24.706;2023-01-24T05:25:34;100770.22;;;0.55;95.53
69879;BME280;57161;43.136;24.706;2023-01-24T05:28:00;100772.19;;;0.54;95.66
69879;BME280;57161;43.136;24.706;2023-01-24T05:30:25;100775.28;;;0.56;95.88
69879;BME280;57161;43.136;24.706;2023-01-24T05:32:55;100739.59;;;0.40;95.25
69879;BME280;57161;43.136;24.706;2023-01-24T05:35:21;100780.00;;;0.56;95.25
69879;BME280;57161;43.136;24.706;2023-01-24T05:37:46;100761.19;;;0.54;95.03
69879;BME280;57161;43.136;24.706;2023-01-24T05:40:12;100756.44;;;0.42;94.88
69879;BME280;57161;43.136;24.706;2023-01-24T05:42:40;100781.44;;;0.60;95.27
69879;BME280;57161;43.136;24.706;2023-01-24T05:45:07;100746.19;;;0.43;95.47
69879;BME280;57161;43.136;24.706;2023-01-24T05:47:32;100784.78;;;0.68;94.69
69879;BME280;57161;43.136;24.706;2023-01-24T05:49:58;100755.22;;;0.43;94.67
69879;BME280;57161;43.136;24.706;2023-01-24T05:52:23;100765.00;;;0.44;94.70
69879;BME280;57161;43.136;24.706;2023-01-24T05:54:49;100785.38;;;0.47;95.35
69879;BME280;57161;43.136;24.706;2023-01-24T05:57:15;100769.19;;;0.36;95.81
69879;BME280;57161;43.136;24.706;2023-01-24T05:59:40;100782.44;;;0.54;95.60
69879;BME280;57161;43.136;24.706;2023-01-24T06:02:06;100766.22;;;0.43;95.06
69879;BME280;57161;43.136;24.706;2023-01-24T06:04:31;100730.97;;;0.25;94.16
69879;BME280;57161;43.136;24.706;2023-01-24T06:06:57;100797.75;;;0.68;94.49
69879;BME280;57161;43.136;24.706;2023-01-24T06:09:22;100800.41;;;0.71;94.73
69879;BME280;57161;43.136;24.706;2023-01-24T06:11:49;100771.63;;;0.47;94.90
69879;BME280;57161;43.136;24.706;2023-01-24T06:14:15;100788.81;;;0.51;94.97
69879;BME280;57161;43.136;24.706;2023-01-24T06:16:42;100773.16;;;0.35;94.99
69879;BME280;57161;43.136;24.706;2023-01-24T06:19:10;100799.41;;;0.65;95.09
69879;BME280;57161;43.136;24.706;2023-01-24T06:21:58;100788.38;;;0.52;94.35
69879;BME280;57161;43.136;24.706;2023-01-24T06:24:28;100790.78;;;0.50;95.27
69879;BME280;57161;43.136;24.706;2023-01-24T06:26:53;100785.63;;;0.52;95.21
69879;BME280;57161;43.136;24.706;2023-01-24T06:29:20;100800.84;;;0.70;94.75
69879;BME280;57161;43.136;24.706;2023-01-24T06:37:49;100817.19;;;0.60;94.50
69879;BME280;57161;43.136;24.706;2023-01-24T06:40:22;100804.53;;;0.50;94.74
69879;BME280;57161;43.136;24.706;2023-01-24T06:42:49;100795.31;;;0.57;94.83
69879;BME280;57161;43.136;24.706;2023-01-24T06:45:15;100828.91;;;0.77;94.42
69879;BME280;57161;43.136;24.706;2023-01-24T06:47:41;100839.13;;;0.77;94.43
69879;BME280;57161;43.136;24.706;2023-01-24T06:50:14;100829.47;;;0.85;93.98
69879;BME280;57161;43.136;24.706;2023-01-24T06:52:40;100834.19;;;0.72;94.33
69879;BME280;57161;43.136;24.706;2023-01-24T06:55:06;100815.31;;;0.57;94.73
69879;BME280;57161;43.136;24.706;2023-01-24T06:57:31;100835.84;;;0.69;94.75
69879;BME280;57161;43.136;24.706;2023-01-24T06:59:57;100794.81;;;0.46;95.02
69879;BME280;57161;43.136;24.706;2023-01-24T07:02:23;100811.59;;;0.51;94.74
69879;BME280;57161;43.136;24.706;2023-01-24T07:04:48;100815.81;;;0.69;94.68
69879;BME280;57161;43.136;24.706;2023-01-24T07:07:14;100834.50;;;0.74;95.04
69879;BME280;57161;43.136;24.706;2023-01-24T07:09:39;100821.41;;;0.78;94.65
69879;BME280;57161;43.136;24.706;2023-01-24T07:12:06;100839.28;;;0.86;94.19
69879;BME280;57161;43.136;24.706;2023-01-24T07:14:31;100777.13;;;0.47;93.80
69879;BME280;57161;43.136;24.706;2023-01-24T07:16:57;100830.88;;;0.77;94.22
69879;BME280;57161;43.136;24.706;2023-01-24T07:19:23;100844.34;;;0.87;93.92
69879;BME280;57161;43.136;24.706;2023-01-24T07:21:51;100848.06;;;0.81;94.66
69879;BME280;57161;43.136;24.706;2023-01-24T07:24:21;100827.59;;;0.69;94.69
69879;BME280;57161;43.136;24.706;2023-01-24T07:26:47;100849.28;;;0.80;93.88
69879;BME280;57161;43.136;24.706;2023-01-24T07:29:17;100862.13;;;0.70;94.72
69879;BME280;57161;43.136;24.706;2023-01-24T07:31:43;100859.78;;;0.56;94.75
69879;BME280;57161;43.136;24.706;2023-01-24T07:34:08;100830.13;;;0.35;94.78
69879;BME280;57161;43.136;24.706;2023-01-24T07:36:33;100831.94;;;0.25;94.29
69879;BME280;57161;43.136;24.706;2023-01-24T07:38:59;100870.50;;;0.38;95.22
69879;BME280;57161;43.136;24.706;2023-01-24T07:41:24;100883.59;;;0.46;95.58
69879;BME280;57161;43.136;24.706;2023-01-24T07:43:50;100865.81;;;0.22;95.47
69879;BME280;57161;43.136;24.706;2023-01-24T07:46:16;100891.53;;;0.44;95.59
69879;BME280;57161;43.136;24.706;2023-01-24T07:48:41;100885.44;;;0.37;95.37
69879;BME280;57161;43.136;24.706;2023-01-24T07:51:07;100889.97;;;0.43;95.12
69879;BME280;57161;43.136;24.706;2023-01-24T07:53:34;100864.50;;;0.26;95.17
69879;BME280;57161;43.136;24.706;2023-01-24T07:56:01;100893.81;;;0.33;94.94
69879;BME280;57161;43.136;24.706;2023-01-24T07:58:27;100881.00;;;0.26;95.20
69879;BME280;57161;43.136;24.706;2023-01-24T08:00:52;100886.88;;;0.41;95.63
69879;BME280;57161;43.136;24.706;2023-01-24T08:03:18;100851.72;;;0.20;95.48
69879;BME280;57161;43.136;24.706;2023-01-24T08:05:44;100904.03;;;0.62;94.72
69879;BME280;57161;43.136;24.706;2023-01-24T08:08:09;100904.66;;;0.53;95.33
69879;BME280;57161;43.136;24.706;2023-01-24T08:10:35;100904.41;;;0.47;95.50
69879;BME280;57161;43.136;24.706;2023-01-24T08:13:01;100905.38;;;0.41;96.43
69879;BME280;57161;43.136;24.706;2023-01-24T08:15:27;100916.38;;;0.41;95.64
69879;BME280;57161;43.136;24.706;2023-01-24T08:17:52;100905.47;;;0.37;95.83
69879;BME280;57161;43.136;24.706;2023-01-24T08:20:18;100872.00;;;0.10;95.75
69879;BME280;57161;43.136;24.706;2023-01-24T08:22:43;100904.69;;;0.37;95.86
69879;BME280;57161;43.136;24.706;2023-01-24T08:25:09;100910.78;;;0.44;95.89
69879;BME280;57161;43.136;24.706;2023-01-24T08:27:35;100899.28;;;0.33;95.12
69879;BME280;57161;43.136;24.706;2023-01-24T08:30:01;100919.78;;;0.45;95.33
69879;BME280;57161;43.136;24.706;2023-01-24T08:32:26;100897.72;;;0.32;94.50
69879;BME280;57161;43.136;24.706;2023-01-24T08:34:52;100928.03;;;0.45;95.56
69879;BME280;57161;43.136;24.706;2023-01-24T08:37:17;100921.34;;;0.46;95.03
69879;BME280;57161;43.136;24.706;2023-01-24T08:39:43;100919.28;;;0.50;95.41
69879;BME280;57161;43.136;24.706;2023-01-24T08:42:09;100922.09;;;0.46;95.91
69879;BME280;57161;43.136;24.706;2023-01-24T08:44:35;100905.81;;;0.39;95.35
69879;BME280;57161;43.136;24.706;2023-01-24T08:47:00;100919.53;;;0.55;95.25
69879;BME280;57161;43.136;24.706;2023-01-24T08:49:26;100914.06;;;0.39;95.58
69879;BME280;57161;43.136;24.706;2023-01-24T08:51:52;100909.22;;;0.43;95.66
69879;BME280;57161;43.136;24.706;2023-01-24T08:54:27;100921.25;;;0.49;95.00
69879;BME280;57161;43.136;24.706;2023-01-24T08:56:53;100905.13;;;0.35;95.37
69879;BME280;57161;43.136;24.706;2023-01-24T08:59:18;100934.28;;;0.62;95.46
69879;BME280;57161;43.136;24.706;2023-01-24T09:01:44;100921.06;;;0.56;94.55
69879;BME280;57161;43.136;24.706;2023-01-24T09:04:13;100900.44;;;0.48;94.56
69879;BME280;57161;43.136;24.706;2023-01-24T09:06:39;100927.34;;;0.57;94.36
69879;BME280;57161;43.136;24.706;2023-01-24T09:09:04;100907.59;;;0.46;95.03
69879;BME280;57161;43.136;24.706;2023-01-24T09:11:31;100903.56;;;0.50;94.77
69879;BME280;57161;43.136;24.706;2023-01-24T09:13:56;100865.16;;;0.30;94.29
69879;BME280;57161;43.136;24.706;2023-01-24T09:16:22;100865.94;;;0.31;95.20
69879;BME280;57161;43.136;24.706;2023-01-24T09:18:48;100899.28;;;0.62;95.14
69879;BME280;57161;43.136;24.706;2023-01-24T09:21:17;100912.66;;;0.47;94.13
69879;BME280;57161;43.136;24.706;2023-01-24T09:23:43;100910.41;;;0.58;94.82
69879;BME280;57161;43.136;24.706;2023-01-24T09:26:09;100914.78;;;0.56;94.42
69879;BME280;57161;43.136;24.706;2023-01-24T09:28:34;100896.69;;;0.42;95.13
69879;BME280;57161;43.136;24.706;2023-01-24T09:31:00;100893.66;;;0.53;95.52
69879;BME280;57161;43.136;24.706;2023-01-24T09:33:26;100906.59;;;0.69;95.77
69879;BME280;57161;43.136;24.706;2023-01-24T09:35:57;100917.44;;;0.88;94.36
69879;BME280;57161;43.136;24.706;2023-01-24T09:38:25;100912.22;;;0.78;93.78
69879;BME280;57161;43.136;24.706;2023-01-24T09:41:08;100899.28;;;0.62;94.03
69879;BME280;57161;43.136;24.706;2023-01-24T09:43:52;100870.41;;;0.41;93.66
69879;BME280;57161;43.136;24.706;2023-01-24T09:46:44;100910.63;;;0.64;94.17
69879;BME280;57161;43.136;24.706;2023-01-24T09:49:22;100902.69;;;0.53;94.24
69879;BME280;57161;43.136;24.706;2023-01-24T09:51:53;100899.22;;;0.66;93.93
69879;BME280;57161;43.136;24.706;2023-01-24T09:54:38;100906.69;;;0.65;93.83
69879;BME280;57161;43.136;24.706;2023-01-24T09:57:20;100885.75;;;0.55;93.84
69879;BME280;57161;43.136;24.706;2023-01-24T09:59:52;100895.88;;;0.58;93.71
69879;BME280;57161;43.136;24.706;2023-01-24T10:02:21;100870.81;;;0.40;93.35
69879;BME280;57161;43.136;24.706;2023-01-24T10:04:48;100854.97;;;0.15;93.58
69879;BME280;57161;43.136;24.706;2023-01-24T10:18:15;100890.47;;;0.54;93.90
69879;BME280;57161;43.136;24.706;2023-01-24T10:21:04;100892.44;;;0.54;93.80
69879;BME280;57161;43.136;24.706;2023-01-24T10:23:38;100896.03;;;0.67;93.62
69879;BME280;57161;43.136;24.706;2023-01-24T10:28:45;100881.34;;;0.57;93.13
69879;BME280;57161;43.136;24.706;2023-01-24T10:31:13;100885.53;;;0.62;94.16
69879;BME280;57161;43.136;24.706;2023-01-24T10:33:51;100882.97;;;0.84;94.17
69879;BME280;57161;43.136;24.706;2023-01-24T10:39:38;100881.28;;;0.74;92.83
69879;BME280;57161;43.136;24.706;2023-01-24T10:42:30;100872.16;;;0.77;93.28
69879;BME280;57161;43.136;24.706;2023-01-24T10:45:03;100874.28;;;0.85;93.08
69879;BME280;57161;43.136;24.706;2023-01-24T10:47:44;100860.53;;;0.85;93.21
69879;BME280;57161;43.136;24.706;2023-01-24T10:50:15;100841.13;;;0.76;92.62
69879;BME280;57161;43.136;24.706;2023-01-24T10:52:43;100858.84;;;0.75;92.55
69879;BME280;57161;43.136;24.706;2023-01-24T10:57:52;100836.28;;;0.80;92.45
69879;BME280;57161;43.136;24.706;2023-01-24T11:02:56;100856.69;;;0.96;91.28
69879;BME280;57161;43.136;24.706;2023-01-24T11:05:23;100841.72;;;0.84;90.96
69879;BME280;57161;43.136;24.706;2023-01-24T11:07:58;100832.00;;;0.79;91.70
69879;BME280;57161;43.136;24.706;2023-01-24T11:10:37;100835.34;;;1.00;91.92
69879;BME280;57161;43.136;24.706;2023-01-24T11:13:37;100821.34;;;1.07;90.84
69879;BME280;57161;43.136;24.706;2023-01-24T11:18:31;100833.16;;;1.20;90.06
69879;BME280;57161;43.136;24.706;2023-01-24T11:21:16;100820.25;;;1.04;90.76
69879;BME280;57161;43.136;24.706;2023-01-24T11:23:42;100827.75;;;1.16;90.13
69879;BME280;57161;43.136;24.706;2023-01-24T11:26:25;100821.16;;;1.14;90.65
69879;BME280;57161;43.136;24.706;2023-01-24T11:29:09;100830.16;;;1.27;90.16
69879;BME280;57161;43.136;24.706;2023-01-24T11:31:48;100817.72;;;1.23;89.02
69879;BME280;57161;43.136;24.706;2023-01-24T11:46:05;100813.19;;;1.54;88.09
69879;BME280;57161;43.136;24.706;2023-01-24T11:51:37;100821.91;;;1.53;86.79
69879;BME280;57161;43.136;24.706;2023-01-24T11:57:04;100797.88;;;1.53;86.85
69879;BME280;57161;43.136;24.706;2023-01-24T12:07:57;100813.53;;;1.43;85.57
69879;BME280;57161;43.136;24.706;2023-01-24T12:10:45;100807.59;;;1.32;86.44
69879;BME280;57161;43.136;24.706;2023-01-24T12:13:22;100815.06;;;1.44;85.00
69879;BME280;57161;43.136;24.706;2023-01-24T12:21:06;100799.75;;;1.43;84.30
69879;BME280;57161;43.136;24.706;2023-01-24T12:26:47;100756.38;;;1.09;84.21
69879;BME280;57161;43.136;24.706;2023-01-24T12:32:33;100813.75;;;1.49;84.79
69879;BME280;57161;43.136;24.706;2023-01-24T12:38:10;100817.63;;;1.52;83.79
69879;BME280;57161;43.136;24.706;2023-01-24T12:40:49;100818.59;;;1.58;83.61
69879;BME280;57161;43.136;24.706;2023-01-24T12:43:29;100822.22;;;1.67;83.04
69879;BME280;57161;43.136;24.706;2023-01-24T12:48:48;100819.59;;;1.64;83.28
69879;BME280;57161;43.136;24.706;2023-01-24T12:51:26;100818.91;;;1.72;82.44
69879;BME280;57161;43.136;24.706;2023-01-24T12:59:08;100819.66;;;1.73;81.57
69879;BME280;57161;43.136;24.706;2023-01-24T13:02:14;100824.22;;;1.67;81.99
69879;BME280;57161;43.136;24.706;2023-01-24T13:12:26;100830.50;;;1.67;80.80
69879;BME280;57161;43.136;24.706;2023-01-24T13:14:56;100830.69;;;1.60;80.10
69879;BME280;57161;43.136;24.706;2023-01-24T13:20:51;100831.25;;;1.68;80.72
69879;BME280;57161;43.136;24.706;2023-01-24T13:28:34;100832.78;;;1.82;80.70
69879;BME280;57161;43.136;24.706;2023-01-24T13:33:50;100827.91;;;1.86;79.82
69879;BME280;57161;43.136;24.706;2023-01-24T13:36:34;100837.72;;;1.87;79.59
69879;BME280;57161;43.136;24.706;2023-01-24T13:39:01;100828.47;;;1.80;79.86
69879;BME280;57161;43.136;24.706;2023-01-24T13:49:34;100843.81;;;1.69;80.53
69879;BME280;57161;43.136;24.706;2023-01-24T13:52:35;100844.13;;;1.84;80.23
69879;BME280;57161;43.136;24.706;2023-01-24T14:00:55;100832.59;;;1.63;79.66
69879;BME280;57161;43.136;24.706;2023-01-24T14:03:32;100841.84;;;1.69;79.35
69879;BME280;57161;43.136;24.706;2023-01-24T14:06:11;100840.28;;;1.68;79.68
69879;BME280;57161;43.136;24.706;2023-01-24T14:08:43;100845.81;;;1.68;80.15
69879;BME280;57161;43.136;24.706;2023-01-24T14:11:26;100819.91;;;1.53;79.25
69879;BME280;57161;43.136;24.706;2023-01-24T14:13:56;100824.31;;;1.63;79.52
69879;BME280;57161;43.136;24.706;2023-01-24T14:21:55;100829.91;;;1.72;79.45
69879;BME280;57161;43.136;24.706;2023-01-24T14:24:25;100820.13;;;1.59;79.54
69879;BME280;57161;43.136;24.706;2023-01-24T14:26:53;100829.06;;;1.63;79.17
69879;BME280;57161;43.136;24.706;2023-01-24T14:29:20;100825.97;;;1.61;78.68
69879;BME280;57161;43.136;24.706;2023-01-24T14:31:50;100829.28;;;1.56;79.10
69879;BME280;57161;43.136;24.706;2023-01-24T14:34:25;100828.19;;;1.40;79.31
69879;BME280;57161;43.136;24.706;2023-01-24T14:37:04;100822.78;;;1.49;79.62
69879;BME280;57161;43.136;24.706;2023-01-24T14:39:35;100806.84;;;1.32;79.12
69879;BME280;57161;43.136;24.706;2023-01-24T14:42:13;100807.50;;;1.36;79.22
69879;BME280;57161;43.136;24.706;2023-01-24T14:45:11;100846.38;;;1.50;80.34
69879;BME280;57161;43.136;24.706;2023-01-24T14:47:38;100823.88;;;1.27;79.90
69879;BME280;57161;43.136;24.706;2023-01-24T14:50:23;100847.03;;;1.55;79.42
69879;BME280;57161;43.136;24.706;2023-01-24T14:52:49;100836.34;;;1.44;79.25
69879;BME280;57161;43.136;24.706;2023-01-24T14:57:53;100848.22;;;1.66;79.36
69879;BME280;57161;43.136;24.706;2023-01-24T15:00:20;100854.72;;;1.72;80.10
69879;BME280;57161;43.136;24.706;2023-01-24T15:02:54;100856.19;;;1.64;79.67
69879;BME280;57161;43.136;24.706;2023-01-24T15:07:51;100831.84;;;1.50;78.50
69879;BME280;57161;43.136;24.706;2023-01-24T15:10:25;100857.41;;;1.50;78.39